Time;durP1;ratioP1;P1;durP2;ratioP2;P2;SDS_P1;SDS_P2;PMS_P1;PMS_P2;Temp;Humidity;BMP_temperature;BMP_pressure;BME280_temperature;BME280_humidity;BME280_pressure;Samples;Min_cycle;Max_cycle;Signal;HPM_P1;HPM_P2
2023/10/23 00:02:16;;;;;;;27.40;24.40;;;;;;;8.32;100.00;97723.08;106516;1282;22562;-88
2023/10/23 00:04:44;;;;;;;28.00;25.50;;;;;;;8.21;100.00;97726.20;106766;1270;24242;-89
2023/10/23 00:07:12;;;;;;;25.40;22.90;;;;;;;8.13;100.00;97727.29;106728;1282;22545;-90
2023/10/23 00:09:40;;;;;;;31.60;28.30;;;;;;;8.02;100.00;97727.46;106766;1282;24435;-88
2023/10/23 00:12:09;;;;;;;24.80;21.40;;;;;;;7.90;100.00;97730.38;106857;1282;22541;-88
2023/10/23 00:14:37;;;;;;;23.00;20.20;;;;;;;7.95;100.00;97729.42;106735;1282;22533;-88
2023/10/23 00:17:05;;;;;;;22.30;19.70;;;;;;;8.01;100.00;97730.97;106747;1282;22549;-88
2023/10/23 00:19:34;;;;;;;21.30;19.10;;;;;;;8.05;100.00;97734.40;106889;1282;23037;-88
2023/10/23 00:22:03;;;;;;;19.80;17.20;;;;;;;8.09;100.00;97738.05;106707;1282;24038;-88
2023/10/23 00:24:31;;;;;;;19.60;17.80;;;;;;;8.09;100.00;97739.45;106785;1282;22760;-89
2023/10/23 00:26:59;;;;;;;21.50;19.10;;;;;;;8.10;100.00;97738.42;108123;1282;22019;-86
2023/10/23 00:29:27;;;;;;;24.10;18.40;;;;;;;8.09;100.00;97743.59;109964;1282;22499;-87
2023/10/23 00:36:03;;;;;;;22.50;16.50;;;;;;;8.13;100.00;97747.73;106696;1280;22639;-88
2023/10/23 00:38:31;;;;;;;23.60;17.40;;;;;;;8.15;100.00;97748.68;106763;1282;25348;-88
2023/10/23 00:40:59;;;;;;;19.90;16.60;;;;;;;8.15;100.00;97750.60;106740;1282;22640;-88
2023/10/23 00:43:27;;;;;;;21.40;17.60;;;;;;;8.15;100.00;97755.70;106762;1282;22554;-88
2023/10/23 00:45:58;;;;;;;21.70;19.50;;;;;;;8.12;100.00;97757.24;106768;1282;22721;-90
2023/10/23 00:48:27;;;;;;;24.10;21.80;;;;;;;8.02;100.00;97758.96;106666;1282;22570;-89
2023/10/23 00:51:00;;;;;;;22.40;19.70;;;;;;;7.93;100.00;97760.56;106697;1282;24446;-89
2023/10/23 00:53:35;;;;;;;21.60;19.40;;;;;;;7.89;100.00;97762.11;106795;1282;22652;-89
2023/10/23 00:56:06;;;;;;;23.00;20.80;;;;;;;7.83;100.00;97765.55;109148;1280;22650;-86
2023/10/23 00:58:39;;;;;;;21.20;19.10;;;;;;;7.77;100.00;97759.07;109681;1282;25336;-88
2023/10/23 01:01:12;;;;;;;21.70;19.40;;;;;;;7.77;100.00;97761.09;106669;1282;22530;-87
2023/10/23 01:03:42;;;;;;;23.60;21.40;;;;;;;7.71;100.00;97766.78;106854;1282;22553;-88
2023/10/23 01:06:12;;;;;;;25.50;23.20;;;;;;;7.60;100.00;97763.52;106757;1282;26092;-88
2023/10/23 01:08:43;;;;;;;24.30;20.30;;;;;;;7.60;100.00;97765.06;106666;1282;22580;-88
2023/10/23 01:11:11;;;;;;;23.60;19.90;;;;;;;7.61;100.00;97763.66;106842;1282;23946;-88
2023/10/23 01:13:39;;;;;;;21.80;19.60;;;;;;;7.59;100.00;97764.12;106724;1282;23377;-88
2023/10/23 01:16:07;;;;;;;19.30;17.30;;;;;;;7.51;100.00;97765.09;106514;1282;25422;-89
2023/10/23 01:18:41;;;;;;;22.40;20.10;;;;;;;7.47;100.00;97765.23;106673;1282;22534;-88
2023/10/23 01:21:09;;;;;;;20.70;18.90;;;;;;;7.41;100.00;97764.70;106725;1282;24374;-89
2023/10/23 01:23:41;;;;;;;21.30;19.00;;;;;;;7.29;100.00;97765.33;106506;1282;25610;-89
2023/10/23 01:26:09;;;;;;;21.90;19.80;;;;;;;7.16;100.00;97768.38;106582;1282;23004;-89
2023/10/23 01:28:37;;;;;;;24.50;18.30;;;;;;;7.13;100.00;97765.17;106594;1282;22569;-89
2023/10/23 01:31:04;;;;;;;19.00;17.00;;;;;;;7.11;100.00;97771.31;106530;1282;24537;-89
2023/10/23 01:33:34;;;;;;;17.90;16.00;;;;;;;7.18;100.00;97772.59;106687;1282;25233;-90
2023/10/23 01:36:02;;;;;;;21.30;18.60;;;;;;;7.29;100.00;97768.33;106646;1282;22659;-90
2023/10/23 01:38:31;;;;;;;18.70;16.80;;;;;;;7.35;100.00;97764.42;106616;1282;23351;-89
2023/10/23 01:40:59;;;;;;;22.10;18.50;;;;;;;7.33;100.00;97767.61;106681;1282;22556;-88
2023/10/23 01:43:28;;;;;;;19.80;17.90;;;;;;;7.31;100.00;97765.38;106682;1282;22915;-88
2023/10/23 01:45:59;;;;;;;23.30;18.60;;;;;;;7.30;100.00;97768.17;106685;1259;24242;-88
2023/10/23 01:48:27;;;;;;;20.90;18.20;;;;;;;7.28;100.00;97772.42;106744;1282;22534;-88
2023/10/23 01:50:59;;;;;;;28.00;25.60;;;;;;;7.23;100.00;97770.52;106731;1282;25431;-89
2023/10/23 01:53:29;;;;;;;27.60;24.80;;;;;;;7.18;100.00;97769.91;106744;1279;24240;-88
2023/10/23 01:56:05;;;;;;;21.20;18.20;;;;;;;7.14;100.00;97767.75;106577;1282;22565;-88
2023/10/23 01:58:33;;;;;;;22.60;19.10;;;;;;;7.08;100.00;97770.47;106800;1282;26281;-89
2023/10/23 02:01:01;;;;;;;22.50;20.20;;;;;;;7.12;100.00;97774.09;106564;1282;24288;-87
2023/10/23 02:03:31;;;;;;;19.10;16.30;;;;;;;7.17;100.00;97776.30;106689;1282;22660;-89
2023/10/23 02:06:00;;;;;;;17.80;15.90;;;;;;;7.21;100.00;97781.63;106759;1282;22670;-88
2023/10/23 02:08:27;;;;;;;18.80;14.90;;;;;;;7.24;100.00;97782.20;107089;1282;24318;-89
2023/10/23 02:10:55;;;;;;;20.50;16.00;;;;;;;7.32;100.00;97781.13;106848;1282;22544;-88
2023/10/23 02:13:23;;;;;;;19.20;17.20;;;;;;;7.32;100.00;97781.48;106731;1283;22660;-86
2023/10/23 02:15:51;;;;;;;18.10;16.00;;;;;;;7.33;100.00;97780.00;106772;1282;24358;-90
2023/10/23 02:18:19;;;;;;;19.90;18.10;;;;;;;7.27;100.00;97782.07;108106;1282;22217;-88
2023/10/23 02:20:47;;;;;;;20.50;18.40;;;;;;;7.17;100.00;97786.16;110073;1283;22548;-87
2023/10/23 02:23:15;;;;;;;25.30;22.70;;;;;;;7.10;100.00;97793.02;109859;1282;22117;-87
2023/10/23 02:25:46;;;;;;;21.80;19.60;;;;;;;7.04;100.00;97789.14;109416;1282;22844;-87
2023/10/23 02:28:14;;;;;;;20.00;16.50;;;;;;;7.00;100.00;97790.83;109882;1283;22032;-86
2023/10/23 02:30:42;;;;;;;18.40;16.50;;;;;;;7.04;100.00;97787.27;108355;1283;22509;-89
2023/10/23 02:33:10;;;;;;;16.60;15.00;;;;;;;7.05;100.00;97786.19;107010;1282;25258;-89
2023/10/23 02:35:38;;;;;;;20.20;17.40;;;;;;;7.03;100.00;97780.15;106781;1283;22546;-89
2023/10/23 02:38:06;;;;;;;20.70;18.60;;;;;;;7.03;100.00;97778.28;106746;1283;22551;-89
2023/10/23 02:40:34;;;;;;;20.60;18.50;;;;;;;7.01;100.00;97777.38;106887;1283;25809;-88
2023/10/23 02:43:03;;;;;;;23.80;21.40;;;;;;;6.89;100.00;97778.52;106753;1283;25491;-88
2023/10/23 02:45:34;;;;;;;23.40;20.30;;;;;;;6.80;100.00;97783.83;106681;1283;22567;-89
2023/10/23 02:48:02;;;;;;;25.70;23.20;;;;;;;6.76;100.00;97783.73;106493;1282;25300;-89
2023/10/23 02:50:30;;;;;;;21.90;19.60;;;;;;;6.76;100.00;97784.54;106606;1282;25246;-89
2023/10/23 02:52:58;;;;;;;19.70;17.90;;;;;;;6.79;100.00;97783.52;106638;1282;24052;-89
2023/10/23 02:55:26;;;;;;;20.30;18.20;;;;;;;6.88;100.00;97783.24;106642;1278;24235;-89
2023/10/23 02:57:54;;;;;;;18.70;16.90;;;;;;;6.97;100.00;97790.33;106736;1281;22736;-90
2023/10/23 03:00:23;;;;;;;22.10;19.90;;;;;;;6.95;100.00;97792.63;106897;1282;22777;-89
2023/10/23 03:02:51;;;;;;;23.20;21.00;;;;;;;6.97;100.00;97788.23;106607;1283;25721;-89
2023/10/23 03:05:20;;;;;;;20.30;18.20;;;;;;;6.96;100.00;97791.98;106707;1282;23273;-89
2023/10/23 03:07:48;;;;;;;18.50;16.70;;;;;;;6.93;100.00;97791.95;106729;1282;22781;-90
2023/10/23 03:10:16;;;;;;;23.90;21.50;;;;;;;6.86;100.00;97797.61;106728;1282;25492;-90
2023/10/23 03:12:45;;;;;;;18.30;14.70;;;;;;;6.88;100.00;97797.66;106721;1264;24215;-89
2023/10/23 03:15:14;;;;;;;18.00;16.20;;;;;;;6.84;100.00;97800.95;106551;1282;22534;-87
2023/10/23 03:17:42;;;;;;;21.50;19.30;;;;;;;6.72;100.00;97799.77;106628;1283;22589;-90
2023/10/23 03:20:11;;;;;;;22.90;20.70;;;;;;;6.69;100.00;97796.41;106703;1282;24427;-90
2023/10/23 03:22:40;;;;;;;19.50;17.20;;;;;;;6.64;100.00;97798.31;106701;1282;24338;-90
2023/10/23 03:25:09;;;;;;;21.30;19.10;;;;;;;6.56;100.00;97796.00;106461;1282;24317;-91
2023/10/23 03:27:37;;;;;;;17.10;15.50;;;;;;;6.50;100.00;97789.34;106685;1282;23873;-90
2023/10/23 03:30:06;;;;;;;18.20;16.50;;;;;;;6.46;100.00;97788.92;106564;1282;22804;-89
2023/10/23 03:32:34;;;;;;;20.70;16.10;;;;;;;6.47;100.00;97792.40;106343;1282;22695;-90
2023/10/23 03:35:03;;;;;;;17.40;15.70;;;;;;;6.44;100.00;97790.92;106576;1282;22567;-90
2023/10/23 03:37:31;;;;;;;18.60;16.60;;;;;;;6.39;100.00;97791.57;106557;1282;22652;-90
2023/10/23 03:39:59;;;;;;;15.00;13.60;;;;;;;6.35;100.00;97796.78;106598;1282;22658;-90
2023/10/23 03:42:27;;;;;;;16.20;14.50;;;;;;;6.27;100.00;97796.11;106700;1282;25422;-90
2023/10/23 03:44:55;;;;;;;22.50;20.60;;;;;;;6.27;100.00;97792.05;106711;1282;22614;-89
2023/10/23 03:47:23;;;;;;;17.60;15.80;;;;;;;6.29;100.00;97791.94;106791;1282;22663;-89
2023/10/23 03:49:52;;;;;;;16.30;14.70;;;;;;;6.28;100.00;97790.91;108146;1282;23510;-88
2023/10/23 03:52:20;;;;;;;14.20;12.80;;;;;;;6.29;100.00;97791.34;106623;1282;22564;-89
2023/10/23 03:54:48;;;;;;;18.40;16.50;;;;;;;6.26;100.00;97795.11;106772;1282;24226;-89
2023/10/23 03:57:16;;;;;;;24.00;21.90;;;;;;;6.22;100.00;97790.25;106690;1282;25266;-89
2023/10/23 03:59:44;;;;;;;19.90;15.10;;;;;;;6.20;100.00;97790.31;106701;1282;25432;-89
2023/10/23 04:02:12;;;;;;;17.20;14.90;;;;;;;6.19;100.00;97789.98;106610;1279;22686;-88
2023/10/23 04:04:40;;;;;;;25.50;23.00;;;;;;;6.20;100.00;97789.98;106705;1282;25480;-89
2023/10/23 04:07:08;;;;;;;23.80;21.60;;;;;;;6.27;100.00;97789.80;106629;1260;25591;-89
2023/10/23 04:09:35;;;;;;;16.90;15.20;;;;;;;6.34;100.00;97791.69;107642;1283;22603;-88
2023/10/23 04:12:04;;;;;;;25.50;21.00;;;;;;;6.28;100.00;97791.67;110056;1282;22216;-88
2023/10/23 04:14:32;;;;;;;24.10;22.10;;;;;;;6.25;100.00;97794.95;109426;1282;22675;-89
2023/10/23 04:17:00;;;;;;;17.30;15.70;;;;;;;6.21;100.00;97793.52;107839;1282;22561;-89
2023/10/23 04:19:59;;;;;;;21.00;19.00;;;;;;;6.13;100.00;97793.80;106722;1282;22664;-89
2023/10/23 04:22:27;;;;;;;14.70;13.10;;;;;;;6.13;100.00;97793.64;106708;1282;25404;-89
2023/10/23 04:24:56;;;;;;;17.40;15.90;;;;;;;6.23;100.00;97796.83;106639;1282;22562;-89
2023/10/23 04:27:24;;;;;;;17.60;15.80;;;;;;;6.22;100.00;97796.83;106669;1282;22548;-89
2023/10/23 04:29:53;;;;;;;18.30;16.50;;;;;;;6.23;100.00;97792.60;106633;1282;25411;-89
2023/10/23 04:32:21;;;;;;;16.50;14.80;;;;;;;6.19;100.00;97795.71;106705;1282;22606;-89
2023/10/23 04:34:49;;;;;;;18.40;13.60;;;;;;;6.12;100.00;97798.31;106674;1282;22545;-89
2023/10/23 04:37:17;;;;;;;15.30;12.90;;;;;;;6.09;100.00;97798.16;106810;1282;22539;-89
2023/10/23 04:39:45;;;;;;;35.60;32.00;;;;;;;6.06;100.00;97805.01;106781;1282;23087;-89
2023/10/23 04:42:13;;;;;;;19.40;17.00;;;;;;;6.07;100.00;97806.82;106739;1282;24375;-89
2023/10/23 04:44:41;;;;;;;16.50;15.10;;;;;;;6.07;100.00;97814.58;106731;1282;25099;-89
2023/10/23 04:47:08;;;;;;;19.90;17.90;;;;;;;6.09;100.00;97813.52;106705;1282;22534;-89
2023/10/23 04:49:37;;;;;;;17.70;15.90;;;;;;;6.12;100.00;97816.60;106695;1282;22656;-90
2023/10/23 04:52:06;;;;;;;19.90;17.90;;;;;;;6.16;100.00;97814.87;106738;1282;22561;-90
2023/10/23 04:54:34;;;;;;;17.10;13.60;;;;;;;6.25;100.00;97819.56;106792;1282;22561;-89
2023/10/23 04:57:02;;;;;;;18.30;16.40;;;;;;;6.25;100.00;97820.84;106769;1282;22628;-88
2023/10/23 04:59:34;;;;;;;15.90;13.20;;;;;;;6.24;100.00;97826.58;106609;1282;22547;-89
2023/10/23 05:02:03;;;;;;;16.80;14.20;;;;;;;6.28;100.00;97830.25;106717;1282;22973;-88
2023/10/23 05:04:31;;;;;;;17.30;13.80;;;;;;;6.37;100.00;97837.40;106654;1282;24353;-89
2023/10/23 05:06:59;;;;;;;18.60;15.10;;;;;;;6.37;100.00;97837.34;106807;1282;25319;-89
2023/10/23 05:09:27;;;;;;;36.30;33.00;;;;;;;6.32;100.00;97839.28;106792;1282;22471;-90
2023/10/23 05:11:55;;;;;;;17.00;15.10;;;;;;;6.31;100.00;97844.59;106813;1282;23073;-89
2023/10/23 05:14:25;;;;;;;17.60;15.90;;;;;;;6.35;100.00;97847.84;106757;1282;22538;-90
2023/10/23 05:16:54;;;;;;;12.40;11.10;;;;;;;6.43;100.00;97854.77;106939;1282;22545;-90
2023/10/23 05:19:22;;;;;;;12.90;11.00;;;;;;;6.43;100.00;97863.98;106933;1282;22552;-91
2023/10/23 05:21:51;;;;;;;25.40;21.40;;;;;;;6.38;100.00;97866.03;106794;1282;26498;-90
2023/10/23 05:24:22;;;;;;;17.60;15.80;;;;;;;6.40;100.00;97860.09;106738;1282;24486;-89
2023/10/23 05:26:50;;;;;;;16.50;14.10;;;;;;;6.44;100.00;97870.35;106643;1282;22547;-90
2023/10/23 05:29:18;;;;;;;16.20;14.60;;;;;;;6.52;100.00;97873.27;106931;1282;25489;-90
2023/10/23 05:31:47;;;;;;;20.20;18.20;;;;;;;6.58;100.00;97870.30;106775;1282;23993;-91
2023/10/23 05:34:15;;;;;;;33.80;30.70;;;;;;;6.66;100.00;97869.48;106702;1282;22565;-90
2023/10/23 05:36:42;;;;;;;25.60;23.00;;;;;;;6.74;100.00;97868.65;107043;1282;22562;-90
2023/10/23 05:39:10;;;;;;;22.80;20.80;;;;;;;6.82;100.00;97878.52;106766;1282;24303;-90
2023/10/23 05:41:38;;;;;;;17.60;16.00;;;;;;;6.90;100.00;97882.34;106714;1282;22709;-90
2023/10/23 05:44:06;;;;;;;21.80;19.70;;;;;;;6.96;100.00;97889.49;106697;1282;25499;-91
2023/10/23 05:46:35;;;;;;;21.70;19.30;;;;;;;6.99;100.00;97893.06;106727;1282;23572;-90
2023/10/23 05:49:03;;;;;;;29.70;27.30;;;;;;;6.95;100.00;97894.05;106608;1282;22660;-90
2023/10/23 05:51:31;;;;;;;22.90;20.80;;;;;;;6.92;100.00;97894.07;106660;1282;25454;-90
2023/10/23 05:54:52;;;;;;;20.80;18.70;;;;;;;6.89;100.00;97893.48;106626;1282;24221;-89
2023/10/23 05:57:20;;;;;;;16.70;14.60;;;;;;;6.86;100.00;97894.84;106840;1282;22530;-89
2023/10/23 05:59:48;;;;;;;24.50;22.20;;;;;;;6.86;100.00;97898.16;106785;1282;22676;-89
2023/10/23 06:02:17;;;;;;;16.90;15.10;;;;;;;6.92;100.00;97903.38;109073;1283;22120;-87
2023/10/23 06:04:45;;;;;;;20.90;16.80;;;;;;;6.95;100.00;97901.13;109996;1283;22677;-88
2023/10/23 06:07:53;;;;;;;18.80;17.00;;;;;;;6.97;100.00;97904.81;109848;1282;22856;-87
2023/10/23 06:10:45;;;;;;;26.30;23.60;;;;;;;7.00;100.00;97916.95;109952;1282;25134;-87
2023/10/23 06:13:13;;;;;;;27.30;24.70;;;;;;;7.01;100.00;97914.75;109632;1282;26523;-92
2023/10/23 06:15:41;;;;;;;18.90;16.90;;;;;;;7.09;100.00;97915.80;107051;1279;25388;-90
2023/10/23 06:18:09;;;;;;;20.60;18.20;;;;;;;7.15;100.00;97917.91;106999;1282;22565;-92
2023/10/23 06:20:37;;;;;;;26.30;23.60;;;;;;;7.21;100.00;97916.75;106797;1282;22629;-91
2023/10/23 06:23:05;;;;;;;22.20;20.00;;;;;;;7.25;100.00;97917.21;106634;1282;22534;-90
2023/10/23 06:25:33;;;;;;;22.00;19.80;;;;;;;7.31;100.00;97914.55;106614;1282;22809;-90
2023/10/23 06:28:02;;;;;;;28.10;25.40;;;;;;;7.38;100.00;97917.41;106466;1282;22780;-91
2023/10/23 06:30:31;;;;;;;26.00;23.40;;;;;;;7.44;100.00;97921.34;106611;1282;22545;-91
2023/10/23 06:32:59;;;;;;;28.70;26.00;;;;;;;7.46;100.00;97920.58;106556;1282;24235;-92
2023/10/23 06:35:27;;;;;;;32.40;29.40;;;;;;;7.50;100.00;97921.09;106552;1282;22909;-90
2023/10/23 06:37:55;;;;;;;32.40;29.50;;;;;;;7.54;100.00;97922.14;106755;1282;22780;-91
2023/10/23 06:40:23;;;;;;;26.00;23.00;;;;;;;7.60;100.00;97915.70;106674;1282;24212;-90
2023/10/23 06:46:36;;;;;;;25.60;23.30;;;;;;;7.74;100.00;97915.25;106803;1282;25249;-91
2023/10/23 06:49:04;;;;;;;25.50;23.10;;;;;;;7.86;100.00;97912.30;106769;1282;24049;-91
2023/10/23 06:51:32;;;;;;;26.30;23.80;;;;;;;8.00;100.00;97912.79;106730;1283;22715;-91
2023/10/23 06:54:00;;;;;;;35.20;31.90;;;;;;;8.09;100.00;97915.45;106663;1283;25545;-90
2023/10/23 06:56:28;;;;;;;29.00;26.50;;;;;;;8.18;100.00;97916.42;106721;1282;24282;-91
2023/10/23 06:59:21;;;;;;;26.90;24.40;;;;;;;8.29;100.00;97913.92;106615;1282;25564;-91
2023/10/23 07:01:49;;;;;;;27.30;24.80;;;;;;;8.44;100.00;97911.82;106652;1282;25483;-91
2023/10/23 07:04:17;;;;;;;23.40;21.20;;;;;;;8.57;100.00;97920.64;106573;1282;24319;-90
2023/10/23 07:06:45;;;;;;;25.40;23.00;;;;;;;8.73;100.00;97922.90;106647;1283;24340;-90
2023/10/23 07:09:13;;;;;;;23.50;21.20;;;;;;;8.88;100.00;97919.73;107086;1282;22524;-90
2023/10/23 07:11:56;;;;;;;26.60;23.90;;;;;;;8.98;100.00;97919.77;106778;1282;22586;-87
2023/10/23 07:14:24;;;;;;;26.70;24.10;;;;;;;9.09;100.00;97922.25;106480;1282;22538;-89
2023/10/23 07:16:52;;;;;;;24.50;22.00;;;;;;;9.18;100.00;97919.95;106692;1282;25360;-89
2023/10/23 07:19:20;;;;;;;23.30;20.90;;;;;;;9.23;100.00;97916.70;106651;1282;22533;-90
2023/10/23 07:21:48;;;;;;;23.30;21.00;;;;;;;9.33;100.00;97912.92;106771;1282;24879;-90
2023/10/23 07:24:16;;;;;;;21.90;19.80;;;;;;;9.44;100.00;97915.14;106610;1271;22524;-90
2023/10/23 07:26:44;;;;;;;20.20;18.20;;;;;;;9.57;100.00;97921.46;106763;1282;22782;-90
2023/10/23 07:29:12;;;;;;;21.60;19.40;;;;;;;9.69;100.00;97926.70;106709;1282;22551;-90
2023/10/23 07:31:40;;;;;;;22.40;20.50;;;;;;;9.84;100.00;97925.58;106571;1282;25337;-91
2023/10/23 07:34:09;;;;;;;22.60;20.40;;;;;;;10.00;100.00;97920.31;106878;1282;22617;-91
2023/10/23 07:36:37;;;;;;;22.70;20.40;;;;;;;10.17;100.00;97921.97;106744;1282;22656;-90
2023/10/23 07:39:05;;;;;;;22.80;19.70;;;;;;;10.31;100.00;97925.27;106763;1282;22565;-89
2023/10/23 07:41:37;;;;;;;20.20;18.10;;;;;;;10.43;100.00;97930.29;106819;1271;22588;-91
2023/10/23 07:44:05;;;;;;;22.00;19.10;;;;;;;10.59;100.00;97928.81;106747;1282;25689;-90
2023/10/23 07:46:33;;;;;;;20.40;17.80;;;;;;;10.73;100.00;97928.17;106984;1282;22565;-90
2023/10/23 07:49:01;;;;;;;21.80;19.60;;;;;;;10.83;100.00;97931.44;106666;1282;23268;-89
2023/10/23 07:51:29;;;;;;;25.50;22.90;;;;;;;10.89;100.00;97937.67;106775;1282;24735;-90
2023/10/23 07:53:57;;;;;;;19.40;16.30;;;;;;;10.96;100.00;97937.37;107791;1283;22373;-86
2023/10/23 07:56:25;;;;;;;18.60;16.30;;;;;;;11.02;100.00;97941.85;109596;1282;22627;-90
2023/10/23 07:58:53;;;;;;;18.40;16.50;;;;;;;11.09;100.00;97945.14;107837;1282;22580;-90
2023/10/23 08:01:22;;;;;;;20.80;16.30;;;;;;;11.17;100.00;97946.55;106858;1282;22541;-89
2023/10/23 08:03:50;;;;;;;17.00;13.30;;;;;;;11.16;100.00;97949.02;106765;1282;23341;-89
2023/10/23 08:06:18;;;;;;;18.30;11.90;;;;;;;11.07;100.00;97945.18;106708;1282;24310;-88
2023/10/23 08:08:46;;;;;;;16.90;11.30;;;;;;;11.02;100.00;97945.18;106724;1282;25111;-88
2023/10/23 08:11:15;;;;;;;17.30;12.40;;;;;;;11.01;100.00;97941.97;106731;1282;25537;-88
2023/10/23 08:13:43;;;;;;;16.50;13.00;;;;;;;11.05;100.00;97937.67;106699;1282;22594;-88
2023/10/23 08:16:11;;;;;;;16.50;14.10;;;;;;;11.12;100.00;97945.09;106513;1282;22643;-87
2023/10/23 08:18:39;;;;;;;15.20;12.70;;;;;;;11.22;100.00;97946.14;106604;1282;24078;-88
2023/10/23 08:21:14;;;;;;;13.60;11.50;;;;;;;11.31;100.00;97947.73;106631;1282;24314;-89
2023/10/23 08:23:52;;;;;;;13.90;12.40;;;;;;;11.34;100.00;97949.11;106723;1282;22653;-88
2023/10/23 08:26:21;;;;;;;16.90;14.90;;;;;;;11.36;100.00;97945.55;106684;1282;25337;-87
2023/10/23 08:28:50;;;;;;;14.40;12.90;;;;;;;11.42;100.00;97945.98;106691;1279;22799;-87
2023/10/23 08:31:29;;;;;;;21.20;14.10;;;;;;;11.45;100.00;97948.90;106667;1282;22569;-87
2023/10/23 08:33:59;;;;;;;16.30;13.30;;;;;;;11.48;100.00;97952.39;106540;1282;25233;-88
2023/10/23 08:36:28;;;;;;;21.00;15.00;;;;;;;11.48;100.00;97955.83;106692;1282;25487;-87
2023/10/23 08:38:56;;;;;;;21.00;14.70;;;;;;;11.50;100.00;97954.76;106682;1282;25639;-87
2023/10/23 08:41:25;;;;;;;20.30;14.20;;;;;;;11.53;100.00;97954.31;106650;1282;22572;-85
2023/10/23 08:43:55;;;;;;;20.60;15.00;;;;;;;11.59;100.00;97952.20;106626;1282;25415;-88
2023/10/23 08:46:26;;;;;;;21.70;16.80;;;;;;;11.76;100.00;97953.77;106839;1280;22732;-87
2023/10/23 08:48:54;;;;;;;18.90;15.00;;;;;;;11.96;100.00;97954.80;106589;1282;22566;-87
2023/10/23 08:51:23;;;;;;;16.10;13.60;;;;;;;11.94;100.00;97938.42;106664;1282;22563;-88
2023/10/23 08:54:00;;;;;;;18.70;16.60;;;;;;;12.07;100.00;97949.93;106662;1282;25660;-87
2023/10/23 08:56:42;;;;;;;19.90;16.30;;;;;;;12.23;100.00;97958.88;106696;1282;25626;-87
2023/10/23 08:59:13;;;;;;;16.90;11.80;;;;;;;12.34;100.00;97963.81;106592;1282;22747;-87
2023/10/23 09:01:42;;;;;;;17.80;13.50;;;;;;;12.38;100.00;97959.76;106778;1276;24241;-87
2023/10/23 09:04:12;;;;;;;18.70;14.10;;;;;;;12.47;100.00;97963.91;106502;1282;22732;-88
2023/10/23 09:06:42;;;;;;;19.80;15.70;;;;;;;12.62;100.00;97962.45;106613;1282;25488;-87
2023/10/23 09:09:11;;;;;;;16.90;12.60;;;;;;;12.73;100.00;97962.17;106578;1282;22584;-87
2023/10/23 09:11:48;;;;;;;18.90;14.50;;;;;;;12.80;100.00;97963.87;106436;1282;25287;-86
2023/10/23 09:14:27;;;;;;;14.80;12.40;;;;;;;12.92;100.00;97964.59;106669;1282;22651;-86
2023/10/23 09:16:57;;;;;;;15.30;12.80;;;;;;;12.95;100.00;97969.70;106594;1282;26121;-85
2023/10/23 09:19:36;;;;;;;18.50;16.60;;;;;;;12.93;100.00;97971.69;106529;1282;22535;-87
2023/10/23 09:22:08;;;;;;;19.00;16.20;;;;;;;12.94;100.00;97972.52;106674;1282;24282;-87
2023/10/23 09:24:37;;;;;;;26.10;22.80;;;;;;;13.04;100.00;97973.07;106896;1282;22549;-87
2023/10/23 09:27:05;;;;;;;24.10;18.10;;;;;;;13.11;100.00;97973.24;106710;1282;23399;-87
2023/10/23 09:29:34;;;;;;;19.00;17.00;;;;;;;13.17;100.00;97966.97;106561;1282;22771;-88
2023/10/23 09:32:04;;;;;;;21.90;13.90;;;;;;;13.36;100.00;97969.22;106563;1282;24192;-87
2023/10/23 09:34:40;;;;;;;15.20;7.80;;;;;;;13.52;100.00;97971.89;106622;1282;23201;-87
2023/10/23 09:37:08;;;;;;;18.50;9.00;;;;;;;13.59;100.00;97973.69;106788;1259;25486;-88
2023/10/23 09:39:37;;;;;;;15.90;10.20;;;;;;;13.71;100.00;97967.33;106722;1283;25559;-87
2023/10/23 09:42:07;;;;;;;11.80;8.60;;;;;;;13.82;100.00;97967.53;108379;1283;22572;-85
2023/10/23 09:44:36;;;;;;;12.50;8.80;;;;;;;13.89;100.00;97968.84;108699;1283;25477;-86
2023/10/23 09:47:05;;;;;;;13.30;8.60;;;;;;;13.87;100.00;97967.05;107389;1283;190236;-85
2023/10/23 09:49:34;;;;;;;13.40;10.00;;;;;;;13.95;100.00;97958.42;108705;1283;22588;-87
2023/10/23 09:52:07;;;;;;;9.60;6.70;;;;;;;14.08;100.00;97958.93;106557;1283;22494;-86
2023/10/23 09:54:38;;;;;;;12.00;7.00;;;;;;;14.14;100.00;97959.40;106711;1283;22670;-86
2023/10/23 09:57:09;;;;;;;12.10;7.40;;;;;;;14.26;100.00;97957.79;106521;1283;22703;-87
2023/10/23 09:59:46;;;;;;;9.80;6.40;;;;;;;14.39;99.46;97954.68;106627;1283;24318;-87
2023/10/23 10:02:20;;;;;;;11.90;7.10;;;;;;;14.47;98.70;97954.71;106664;1283;22686;-86
2023/10/23 10:04:57;;;;;;;11.20;5.80;;;;;;;14.49;95.13;97950.48;106544;1283;25265;-88
2023/10/23 10:07:52;;;;;;;10.50;6.00;;;;;;;14.50;94.30;97948.82;106565;1283;22568;-87
2023/10/23 10:10:21;;;;;;;12.90;6.70;;;;;;;14.46;93.67;97944.33;106549;1283;22571;-87
2023/10/23 10:12:49;;;;;;;13.30;7.60;;;;;;;14.50;95.53;97940.85;106555;1283;22566;-88
2023/10/23 10:15:17;;;;;;;13.30;7.20;;;;;;;14.62;96.46;97938.70;106620;1283;22540;-87
2023/10/23 10:17:46;;;;;;;9.50;6.70;;;;;;;14.75;97.53;97938.17;106537;1283;24332;-87
2023/10/23 10:20:16;;;;;;;10.20;6.00;;;;;;;14.91;96.28;97936.97;106584;1283;22624;-88
2023/10/23 10:22:45;;;;;;;12.10;6.50;;;;;;;14.95;94.85;97935.34;106995;1283;22601;-87
2023/10/23 10:25:15;;;;;;;11.90;6.60;;;;;;;14.99;94.92;97929.14;106565;1283;22544;-87
2023/10/23 10:27:43;;;;;;;9.70;5.80;;;;;;;15.09;96.97;97924.17;106575;1283;24229;-87
2023/10/23 10:30:38;;;;;;;8.40;4.90;;;;;;;15.12;92.21;97926.17;106602;1283;22553;-87
2023/10/23 10:33:15;;;;;;;10.80;5.00;;;;;;;15.10;89.89;97921.90;106609;1283;24214;-85
2023/10/23 10:36:10;;;;;;;8.20;4.20;;;;;;;15.09;89.76;97916.80;106569;1283;25239;-87
2023/10/23 10:38:41;;;;;;;9.90;4.10;;;;;;;15.02;89.78;97918.63;106686;1282;22661;-87
2023/10/23 10:41:18;;;;;;;8.80;4.90;;;;;;;14.97;89.31;97910.55;106761;1279;24571;-88
2023/10/23 10:43:53;;;;;;;9.40;4.60;;;;;;;14.96;89.37;97912.45;106698;1273;22670;-87
2023/10/23 10:46:23;;;;;;;8.40;4.90;;;;;;;15.01;88.24;97913.55;106715;1282;22603;-87
2023/10/23 10:48:53;;;;;;;8.00;4.20;;;;;;;15.06;87.30;97907.70;106819;1282;22635;-87
2023/10/23 10:51:24;;;;;;;8.80;4.30;;;;;;;15.02;86.59;97902.98;106745;1282;24049;-87
2023/10/23 10:54:03;;;;;;;7.90;4.40;;;;;;;15.13;90.13;97902.79;106719;1282;22645;-87
2023/10/23 10:56:31;;;;;;;8.70;5.00;;;;;;;15.33;89.98;97900.39;106630;1282;22568;-87
2023/10/23 10:59:00;;;;;;;12.10;5.20;;;;;;;15.38;85.13;97898.93;106636;1283;24282;-87
2023/10/23 11:01:29;;;;;;;10.10;4.80;;;;;;;15.35;85.54;97901.26;106586;1282;22533;-87
2023/10/23 11:03:57;;;;;;;10.10;4.50;;;;;;;15.40;85.29;97899.94;106663;1282;23135;-86
2023/10/23 11:06:25;;;;;;;10.60;4.80;;;;;;;15.46;84.31;97903.05;106689;1282;22576;-86
2023/10/23 11:08:54;;;;;;;9.00;5.50;;;;;;;15.55;84.20;97902.61;106675;1282;23434;-85
2023/10/23 11:11:25;;;;;;;11.80;4.90;;;;;;;15.60;83.74;97903.82;106678;1282;22564;-84
2023/10/23 11:13:53;;;;;;;15.40;5.20;;;;;;;15.68;81.92;97903.55;106697;1282;22580;-84
2023/10/23 11:16:21;;;;;;;9.00;5.00;;;;;;;15.63;80.29;97900.58;107068;1282;25499;-84
2023/10/23 11:18:51;;;;;;;10.90;5.80;;;;;;;15.61;80.49;97902.92;107889;1282;25332;-85
2023/10/23 11:21:23;;;;;;;9.90;5.00;;;;;;;15.67;81.41;97894.91;107383;1282;22544;-84
2023/10/23 11:23:57;;;;;;;15.30;5.00;;;;;;;15.80;80.26;97893.91;106749;1282;22546;-84
2023/10/23 11:26:26;;;;;;;13.60;5.20;;;;;;;15.85;77.18;97891.31;106645;1282;22674;-84
2023/10/23 11:28:55;;;;;;;8.70;4.40;;;;;;;15.92;79.58;97885.11;106602;1282;22627;-84
2023/10/23 11:31:23;;;;;;;10.00;5.40;;;;;;;16.11;78.58;97886.64;106612;1282;24219;-84